Date,TemperatureHighF,TemperatureAvgF,TemperatureLowF,DewpointHighF,DewpointAvgF,DewpointLowF,HumidityHigh,HumidityAvg,HumidityLow,PressureMaxIn,PressureMinIn,WindSpeedMaxMPH,WindSpeedAvgMPH,GustSpeedMaxMPH,PrecipitationSumIn
2013-1-1,45,42,38,45,42,38,100,99,94,29.93,29.30,20,6,20,0.18
2013-1-2,53,48,42,53,48,42,100,100,100,30.09,29.92,26,7,27,0.45
2013-1-3,53,52,51,53,52,51,100,100,100,30.42,30.10,28,8,28,0.04
2013-1-4,52,50,49,51,50,49,100,100,100,30.47,30.41,17,6,17,0.01
2013-1-5,52,50,48,52,50,48,100,100,100,30.43,30.25,21,7,21,0.16
2013-1-6,51,48,43,51,48,43,100,100,100,30.42,30.18,20,6,20,0.14
2013-1-7,53,51,50,53,51,50,100,100,100,30.18,29.98,17,6,17,0.30
2013-1-8,54,50,43,54,50,43,100,100,100,30.16,29.94,20,7,20,0.23
2013-1-9,47,44,40,47,44,40,100,100,100,30.16,30.04,13,2,13,0.02
2013-1-10,40,37,34,40,37,34,100,100,100,30.05,29.94,6,1,6,0.01
2013-1-11,45,40,38,45,40,-5,100,99,12,30.00,29.93,8,1,8,0.01
2013-1-12,40,37,34,40,37,34,100,100,100,30.10,29.92,7,1,7,0.01
2013-1-13,40,38,36,40,38,36,100,100,100,30.11,29.96,22,5,22,0.07
2013-1-14,43,39,35,43,39,35,100,100,97,29.96,29.75,17,5,17,0.12
2013-1-15,38,35,28,38,35,28,100,100,100,29.90,29.81,10,2,10,0.00
2013-1-16,35,32,28,35,32,27,100,100,100,29.95,29.83,5,0,5,0.00
2013-1-17,38,36,34,37,35,33,100,97,86,29.97,29.74,13,3,13,0.01
2013-1-18,36,35,32,36,32,30,100,91,82,29.74,29.50,28,11,28,0.00
2013-1-19,39,35,32,38,34,32,100,99,96,29.70,29.53,16,4,16,0.00
2013-1-20,36,35,34,35,34,33,100,97,92,29.69,29.51,13,5,13,0.00
2013-1-21,37,36,35,37,36,34,100,100,96,29.51,29.43,26,10,26,0.03
2013-1-22,38,35,29,38,34,29,100,100,96,29.82,29.46,17,4,17,0.05
2013-1-23,37,34,30,37,34,30,100,100,100,29.93,29.82,6,1,6,0.65
2013-1-24,40,37,35,38,36,35,100,97,89,30.04,29.92,20,7,20,0.66
2013-1-25,38,37,35,38,37,35,100,100,95,29.92,29.37,29,10,29,0.21
2013-1-26,50,42,38,50,42,38,100,100,97,29.56,28.90,28,8,28,1.05
2013-1-27,52,44,41,52,44,41,100,100,99,29.21,28.76,30,11,30,0.44
2013-1-28,49,44,41,49,44,41,100,100,99,29.32,28.86,33,14,33,0.85
2013-1-29,55,48,46,55,48,44,100,98,89,29.33,28.93,32,12,32,0.41
2013-1-30,47,45,41,47,44,41,100,98,85,29.65,29.13,33,10,33,0.37
2013-1-31,48,44,40,46,44,40,100,98,86,29.65,29.16,34,12,35,0.87
2013-2-1,46,42,36,46,41,34,100,97,89,29.83,29.35,21,5,21,0.18
2013-2-2,42,38,33,40,36,32,100,95,82,30.19,29.83,16,4,16,0.00
2013-2-3,51,47,40,51,47,40,100,100,95,30.02,29.51,28,11,28,0.58
2013-2-4,51,41,36,50,41,36,100,99,93,29.59,29.34,39,14,39,0.38
2013-2-5,45,40,35,45,40,35,100,98,86,29.61,29.09,28,9,28,0.36
2013-2-6,44,40,35,39,36,34,99,84,70,30.15,29.61,26,7,26,0.00
2013-2-7,42,39,36,41,39,35,100,98,93,30.15,30.00,12,3,12,0.01
2013-2-8,46,42,37,43,41,37,100,97,88,30.18,30.07,17,4,17,0.07
2013-2-9,43,42,40,43,42,40,100,100,100,30.10,29.77,10,2,10,0.11
2013-2-10,40,38,36,40,38,36,100,100,100,29.77,29.37,13,5,13,0.31
2013-2-11,45,39,35,41,38,34,100,95,82,29.92,29.44,20,7,20,0.09
2013-2-12,41,37,34,38,36,34,100,97,88,30.06,29.92,10,3,10,0.00
2013-2-13,48,39,35,48,39,33,100,98,88,30.04,29.50,29,12,29,0.80
2013-2-14,48,46,45,48,46,45,100,100,100,29.84,29.53,20,6,20,0.11
2013-2-15,51,45,39,48,44,39,100,98,85,30.10,29.84,13,3,13,0.01
2013-2-16,52,46,41,52,46,41,100,100,100,30.09,30.06,20,6,20,0.00
2013-2-17,51,44,35,48,43,35,100,97,85,30.09,30.03,13,3,13,0.00
2013-2-18,47,37,31,42,36,31,100,96,83,30.12,30.07,7,1,7,0.01
2013-2-19,47,38,30,43,37,30,100,97,81,30.13,30.08,13,3,13,0.00
2013-2-20,44,39,32,44,39,32,100,98,94,30.29,30.12,12,4,12,0.00
2013-2-21,43,34,28,36,32,28,100,91,77,30.31,30.27,20,4,20,0.01
2013-2-22,38,36,34,33,31,29,90,83,79,30.32,30.27,13,3,13,0.00
2013-2-23,42,36,34,36,33,31,100,90,77,30.40,30.27,7,1,7,0.00
2013-2-24,43,38,33,40,37,33,100,97,88,30.48,30.39,10,1,10,0.00
2013-2-25,47,38,33,43,37,33,100,97,84,30.63,30.48,12,2,12,0.00
2013-2-26,49,40,34,44,39,34,100,96,80,30.69,30.61,12,4,12,0.01
2013-2-27,50,39,31,47,38,31,100,98,85,30.69,30.59,7,2,7,0.01
2013-2-28,52,41,32,49,40,32,100,97,86,30.59,30.51,7,1,7,0.01
2013-3-1,51,43,35,45,41,35,100,93,77,30.54,30.44,7,1,7,0.00
2013-3-2,54,46,37,50,45,37,100,96,83,30.44,30.25,12,3,12,0.00
2013-3-3,48,46,41,46,45,40,100,97,86,30.25,30.09,12,2,12,0.00
2013-3-4,50,42,35,44,40,35,100,94,80,30.09,29.74,9,2,9,0.00
2013-3-5,49,40,33,43,38,33,100,93,76,29.74,29.63,7,2,7,0.00
2013-3-6,43,41,36,43,41,36,100,99,96,29.69,29.62,20,10,20,0.04
2013-3-7,46,43,42,46,43,42,100,100,100,29.62,29.51,20,10,20,0.26
2013-3-8,44,42,41,44,42,41,100,100,99,29.68,29.51,24,13,24,0.00
2013-3-9,42,40,38,42,39,34,100,97,85,29.88,29.68,21,13,21,0.06
2013-3-10,39,35,29,38,33,27,100,92,79,30.11,29.88,20,9,20,0.02
2013-3-11,37,31,26,29,26,23,97,82,66,30.16,30.11,20,6,20,0.04
2013-3-12,46,37,26,38,31,22,92,80,67,30.15,29.91,14,3,14,0.00
2013-3-13,46,38,32,36,32,27,98,79,56,29.99,29.88,12,4,12,0.00
2013-3-14,45,39,31,45,38,29,100,97,89,29.99,29.57,17,5,17,0.08
2013-3-15,50,42,36,48,42,36,100,98,84,29.57,29.36,24,7,24,0.34
2013-3-16,41,38,35,41,38,35,100,100,100,29.36,29.21,12,2,12,0.25
2013-3-17,43,38,35,43,38,35,100,100,100,29.25,29.11,13,2,13,0.11
2013-3-18,41,38,35,41,38,34,100,100,97,29.52,29.24,20,10,20,0.13
2013-3-19,38,36,35,38,36,34,100,99,96,29.63,29.51,25,12,25,0.05
2013-3-20,42,37,32,40,36,32,100,95,83,30.03,29.63,16,6,16,0.01
2013-3-21,43,34,26,35,32,26,100,89,72,30.07,29.94,24,9,24,0.01
2013-3-22,38,36,34,36,35,33,100,95,84,29.97,29.88,30,17,30,0.06
2013-3-23,36,34,34,34,32,30,100,93,83,30.15,29.96,26,15,27,0.05
2013-3-24,38,35,34,32,30,28,86,81,71,30.27,30.14,30,16,30,0.08
2013-3-25,38,36,33,33,31,28,89,83,74,30.28,30.24,22,12,22,0.03
2013-3-26,42,35,28,34,31,25,100,85,66,30.24,30.15,20,7,20,0.03
2013-3-27,42,35,27,38,32,25,100,91,70,30.16,30.09,18,6,18,0.01
2013-3-28,44,36,30,36,32,28,100,86,66,30.10,30.04,20,6,20,0.02
2013-3-29,45,35,28,38,32,26,100,87,68,30.04,29.92,16,4,16,0.00
2013-3-30,46,36,27,35,31,25,100,83,62,30.00,29.96,12,3,12,0.00
2013-3-31,44,37,29,33,30,27,95,76,58,30.01,29.96,18,4,18,0.00
2013-4-1,47,36,26,34,29,24,94,77,59,30.08,29.98,20,6,20,0.00
2013-4-2,48,37,26,36,31,24,97,81,61,30.24,30.08,14,4,14,0.00
2013-4-3,50,37,26,38,32,26,100,81,57,30.31,30.24,13,3,13,0.00
2013-4-4,50,41,32,38,34,30,93,78,55,30.29,30.22,22,4,22,0.00
2013-4-5,50,41,34,38,34,30,94,76,56,30.27,30.22,13,4,13,0.00
2013-4-6,51,41,33,42,36,28,98,82,62,30.28,30.19,14,4,14,0.00
2013-4-7,51,41,32,42,37,30,96,87,69,30.19,29.96,17,4,17,0.00
2013-4-8,48,40,36,38,34,28,96,77,57,29.96,29.71,20,9,20,0.00
2013-4-9,49,40,32,37,32,28,93,75,52,29.71,29.64,21,9,21,0.00
2013-4-10,48,40,32,42,37,31,100,89,70,29.70,29.57,13,4,13,0.00
2013-4-11,45,40,38,45,40,38,100,98,95,29.57,29.40,13,4,13,0.19
2013-4-12,45,40,37,45,40,37,100,100,96,29.65,29.37,12,4,12,0.37
2013-4-13,55,47,41,53,45,41,100,91,69,29.72,29.36,32,7,32,0.07
2013-4-14,57,53,49,54,52,49,100,95,84,29.44,29.35,39,20,39,0.65
2013-4-15,57,52,47,54,50,47,100,92,80,29.73,29.44,34,12,35,0.11
2013-4-16,54,49,43,50,45,40,100,87,65,29.84,29.32,34,16,35,0.20
2013-4-17,53,47,42,53,47,40,100,98,90,29.83,29.08,34,12,35,1.10
2013-4-18,53,48,44,49,46,41,100,92,78,29.92,29.06,33,14,33,0.26
2013-4-19,55,46,38,44,40,36,95,80,58,30.42,29.92,20,5,20,0.00
2013-4-20,57,48,41,47,44,39,99,84,65,30.42,30.12,24,9,24,0.06
2013-4-21,54,47,43,48,45,42,100,94,75,30.11,29.84,25,9,25,0.24
2013-4-22,54,48,44,52,46,43,100,94,80,29.86,29.60,31,13,31,0.05
2013-4-23,55,50,46,48,46,43,99,86,71,30.05,29.72,30,13,30,0.07
2013-4-24,54,49,44,52,44,37,100,85,59,30.22,29.87,25,6,25,0.46
2013-4-25,52,45,41,46,42,38,100,90,74,30.21,30.04,20,4,20,0.16
2013-4-26,53,43,38,46,40,36,99,88,66,30.05,29.86,28,7,28,0.14
2013-4-27,54,45,37,39,36,33,92,73,54,30.14,29.95,18,5,18,0.00
2013-4-28,50,44,40,48,43,38,100,94,79,29.95,29.61,28,11,28,0.40
2013-4-29,53,46,41,44,41,38,98,84,65,30.11,29.61,32,12,32,0.09
2013-4-30,56,47,36,42,38,31,94,73,47,30.29,30.11,14,4,14,0.00
2013-5-1,56,48,39,48,41,35,99,78,51,30.26,30.10,24,8,24,0.00
2013-5-2,56,45,34,49,41,32,100,85,64,30.27,29.98,22,7,22,0.08
2013-5-3,52,49,42,52,49,41,100,99,95,29.98,29.66,29,11,29,0.71
2013-5-4,50,45,37,46,42,36,98,89,77,29.88,29.74,20,7,20,0.00
2013-5-5,59,54,48,58,52,46,100,94,88,30.01,29.88,20,8,20,0.02
2013-5-6,56,52,48,55,51,47,100,97,91,30.04,29.97,20,6,20,0.04
2013-5-7,73,57,41,57,49,41,100,79,48,30.05,29.81,16,3,16,0.01
2013-5-8,58,52,48,55,49,43,96,87,70,29.81,29.44,25,9,25,0.04
2013-5-9,52,48,43,46,44,41,99,88,76,29.50,29.31,26,10,27,0.04
2013-5-10,54,48,41,52,46,40,99,93,77,29.62,29.39,26,5,26,0.16
2013-5-11,49,46,43,49,45,42,100,96,90,29.75,29.48,24,9,24,0.34
2013-5-12,52,47,42,52,46,39,100,95,86,29.79,29.59,20,8,20,0.12
2013-5-13,49,43,38,45,40,36,98,91,80,29.63,29.43,26,10,26,0.47
2013-5-14,53,45,40,47,42,38,100,90,74,29.43,29.36,24,8,24,0.47
2013-5-15,57,47,38,44,40,36,96,78,55,29.42,29.31,24,7,24,0.00
2013-5-16,56,48,39,46,41,37,97,79,61,29.67,29.40,16,4,16,0.01
2013-5-17,63,52,40,47,42,39,100,71,47,29.86,29.68,24,4,24,0.00
2013-5-18,56,52,48,56,50,42,100,96,73,29.85,29.69,21,6,21,0.91
2013-5-19,59,53,50,57,52,50,100,98,92,29.98,29.79,16,4,16,0.00
2013-5-20,72,60,52,64,57,52,100,89,68,30.01,29.92,13,4,13,0.00
2013-5-21,63,55,48,52,48,44,94,78,56,30.10,30.01,20,8,20,0.00
2013-5-22,57,49,39,45,41,36,93,76,50,30.11,30.03,27,11,27,0.04
2013-5-23,51,44,39,43,37,34,90,76,61,30.04,29.93,21,10,21,0.03
2013-5-24,61,51,43,43,39,34,80,64,47,30.20,29.94,20,8,20,0.00
2013-5-25,63,51,38,46,41,35,91,70,47,30.20,30.12,16,4,16,0.00
2013-5-26,62,53,44,52,46,39,92,79,61,30.12,29.72,18,6,18,0.00
2013-5-27,56,50,46,53,48,44,100,93,79,29.72,29.40,22,10,22,1.06
2013-5-28,60,50,41,52,46,39,100,88,67,29.77,29.49,14,4,14,0.01
2013-5-29,69,55,42,55,50,40,99,82,59,29.92,29.76,13,3,13,0.04
2013-5-30,71,61,53,56,51,46,85,69,57,30.07,29.91,16,4,16,0.01
2013-5-31,61,53,46,54,47,41,96,82,63,30.20,30.06,20,6,20,0.00
2013-6-1,58,50,43,53,44,40,97,80,59,30.32,30.19,20,6,20,0.05
2013-6-2,63,52,40,49,44,38,96,76,56,30.44,30.32,14,4,14,0.00
2013-6-3,67,58,50,59,54,48,99,88,73,30.49,30.44,12,2,12,0.00
2013-6-4,74,61,50,57,53,48,100,76,52,30.48,30.30,17,4,17,0.00
2013-6-5,71,58,51,60,53,48,96,85,60,30.30,30.14,10,2,10,0.31
2013-6-6,73,59,45,57,51,44,98,77,47,30.25,30.17,12,2,12,0.00
2013-6-7,71,59,45,57,50,42,96,75,51,30.30,30.25,13,4,13,0.00
2013-6-8,75,60,46,56,49,44,95,70,41,30.30,30.09,9,3,9,0.00
2013-6-9,71,58,48,56,51,46,96,80,55,30.12,29.96,12,4,12,0.00
2013-6-10,64,56,50,55,51,47,93,85,68,30.00,29.88,12,4,12,0.00
2013-6-11,59,54,49,56,52,46,99,92,71,29.89,29.63,17,5,17,0.19
2013-6-12,62,56,51,57,53,49,100,92,71,29.64,29.58,17,6,17,0.20
2013-6-13,60,53,46,50,47,44,96,80,59,29.79,29.56,22,7,22,0.00
2013-6-14,65,55,47,55,49,46,97,81,62,29.80,29.53,29,8,29,0.11
2013-6-15,53,50,46,53,49,46,100,98,92,29.59,29.35,30,10,30,0.89
2013-6-16,67,56,48,56,51,48,100,85,58,29.98,29.59,12,3,12,0.00
2013-6-17,68,58,48,57,53,47,97,82,59,30.05,29.98,9,2,9,0.00
2013-6-18,69,61,54,57,54,51,95,78,58,30.01,29.92,13,3,13,0.00
2013-6-19,65,57,50,52,50,46,96,77,54,30.02,29.95,20,4,20,0.00
2013-6-20,72,59,49,58,52,46,93,78,53,30.01,29.78,10,2,10,0.00
2013-6-21,67,59,55,57,53,49,95,80,58,29.78,29.57,13,4,13,0.00
2013-6-22,63,55,51,55,52,50,100,91,72,29.57,29.28,20,7,20,0.33
2013-6-23,59,54,51,55,51,45,100,88,77,29.96,29.38,26,11,27,0.25
2013-6-24,60,53,48,48,45,43,88,74,60,30.26,29.96,20,8,20,0.00
2013-6-25,64,55,45,53,49,42,92,81,65,30.39,30.26,13,3,13,0.00
2013-6-26,64,56,49,52,48,45,95,76,57,30.44,30.39,14,6,14,0.00
2013-6-27,60,54,49,59,52,45,100,94,79,30.42,30.15,14,4,14,0.27
2013-6-28,59,55,51,58,54,46,100,94,78,30.16,29.94,20,6,20,0.13
2013-6-29,59,54,49,56,51,46,99,90,80,30.14,30.08,20,6,20,0.00
2013-6-30,60,56,51,59,53,48,100,92,84,30.10,29.86,24,9,24,0.15
2013-7-1,61,54,49,51,48,44,97,80,59,29.90,29.84,20,6,20,0.03
2013-7-2,56,53,49,56,52,46,100,95,85,29.87,29.42,24,8,24,0.29
2013-7-3,63,58,54,57,55,53,100,90,73,29.79,29.43,16,5,16,0.03
2013-7-4,63,59,54,61,55,49,100,87,68,30.13,29.69,26,11,26,0.36
2013-7-5,67,58,53,57,54,49,99,85,69,30.36,30.13,17,6,17,0.01
2013-7-6,70,60,49,59,55,48,98,84,66,30.42,30.29,18,6,18,0.00
2013-7-7,73,64,58,62,59,55,100,85,63,30.58,30.42,13,4,13,0.03
2013-7-8,82,66,53,67,59,51,100,82,57,30.61,30.47,8,3,8,0.00
2013-7-9,81,70,58,68,62,56,96,78,56,30.47,30.32,16,4,16,0.00
2013-7-10,77,66,58,64,60,57,95,82,62,30.38,30.30,12,4,12,0.00
2013-7-11,77,66,57,67,61,54,93,83,70,30.34,30.25,13,3,13,0.00
2013-7-12,81,70,60,67,62,58,99,79,50,30.26,30.21,13,4,13,0.00
2013-7-13,72,64,56,63,58,50,99,80,57,30.30,30.24,16,4,16,0.00
2013-7-14,68,60,53,56,52,50,92,77,61,30.29,30.20,16,4,16,0.00
2013-7-15,68,60,51,60,55,50,98,85,65,30.21,30.18,16,4,16,0.00
2013-7-16,72,64,60,62,60,56,99,85,69,30.24,30.18,12,4,12,0.00
2013-7-17,75,66,58,61,59,56,95,78,58,30.33,30.23,14,4,14,0.00
2013-7-18,78,68,58,67,62,56,97,82,65,30.36,30.32,12,4,12,0.00
2013-7-19,84,69,52,64,58,50,98,71,41,30.37,30.29,13,4,13,0.00
2013-7-20,83,68,57,66,60,55,97,77,56,30.33,30.22,12,4,12,0.00
2013-7-21,75,63,57,61,56,53,94,80,60,30.26,30.11,16,8,16,0.00
2013-7-22,72,64,59,63,59,55,92,84,71,30.12,29.96,13,6,13,0.00
2013-7-23,70,63,60,68,62,58,100,96,87,29.96,29.83,14,4,14,0.63
2013-7-24,76,65,56,66,60,55,100,86,66,29.87,29.83,12,3,12,0.03
2013-7-25,72,63,58,66,61,57,100,93,77,29.86,29.76,8,2,8,0.85
2013-7-26,73,65,59,63,60,56,98,85,67,29.83,29.78,18,4,18,0.00
2013-7-27,74,64,52,61,57,50,99,81,57,29.83,29.62,12,3,12,0.00
2013-7-28,67,61,58,62,59,55,100,94,82,29.62,29.52,12,3,12,0.76
2013-7-29,71,61,53,62,58,52,100,89,71,29.73,29.60,17,3,17,0.07
2013-7-30,67,58,52,59,55,51,100,89,67,29.79,29.73,17,5,17,0.06
2013-7-31,69,59,51,57,54,50,100,84,57,29.86,29.71,16,3,16,0.09
2013-8-1,67,63,58,66,62,57,100,98,92,29.71,29.59,21,5,21,0.96
2013-8-2,72,65,58,63,59,55,99,82,62,29.59,29.50,30,12,30,0.01
2013-8-3,66,59,55,56,54,52,96,85,66,29.83,29.53,24,10,24,0.04
2013-8-4,69,60,53,58,55,51,99,84,60,29.89,29.82,18,6,18,0.03
2013-8-5,69,59,52,58,53,48,99,83,62,29.86,29.75,17,4,17,0.00
2013-8-6,68,58,49,55,52,46,95,81,60,29.96,29.86,18,3,18,0.00
2013-8-7,69,60,52,59,55,50,97,85,62,30.05,29.93,10,2,10,0.01
2013-8-8,71,60,49,59,54,48,100,84,61,30.04,29.88,14,3,14,0.01
2013-8-9,65,59,55,58,54,50,100,85,67,30.12,29.85,20,6,20,0.06
2013-8-10,64,57,53,55,52,50,95,86,67,30.13,29.98,14,4,14,0.02
2013-8-11,62,55,53,55,53,51,100,91,69,29.98,29.86,20,6,20,0.24
2013-8-12,63,56,51,56,52,48,98,86,69,30.04,29.83,20,7,20,0.08
2013-8-13,65,55,45,53,49,43,99,81,63,30.14,30.03,13,3,13,0.00
2013-8-14,68,60,54,62,58,52,100,92,70,30.13,29.91,16,4,16,0.09
2013-8-15,67,62,60,65,62,60,100,99,89,29.91,29.72,20,8,20,0.20
2013-8-16,66,59,53,60,56,52,100,90,74,29.86,29.74,17,5,17,0.02
2013-8-17,69,59,54,64,57,52,100,91,76,29.82,29.38,29,11,29,0.46
2013-8-18,62,56,53,56,52,50,97,86,69,29.79,29.45,24,8,24,0.10
2013-8-19,64,57,52,57,53,50,98,87,66,30.17,29.79,21,6,21,0.02
2013-8-20,66,59,54,59,56,52,98,92,76,30.23,30.11,14,5,14,0.05
2013-8-21,70,62,58,64,60,58,100,95,77,30.10,30.01,20,7,20,0.18
2013-8-22,71,61,57,65,60,56,100,95,79,30.10,29.97,12,3,12,0.00
2013-8-23,69,60,52,64,58,52,100,94,78,29.97,29.85,12,2,12,0.05
2013-8-24,66,59,52,57,54,49,100,86,67,29.96,29.88,12,2,12,0.01
2013-8-25,73,59,46,61,54,45,100,82,64,30.15,29.96,7,1,7,0.00
2013-8-26,67,59,52,61,56,51,100,89,78,30.16,30.09,12,2,12,0.00
2013-8-27,66,58,51,63,56,49,100,93,83,30.19,30.07,14,3,14,0.00
2013-8-28,63,55,48,54,50,48,99,86,69,30.21,30.07,12,2,12,0.00
2013-8-29,62,58,53,60,57,50,100,98,90,30.07,29.99,16,5,16,0.06
2013-8-30,63,57,51,62,56,44,100,95,76,30.08,29.84,27,7,27,0.07
2013-8-31,61,54,49,52,48,43,95,80,54,30.30,30.08,25,7,25,0.06
2013-9-1,59,56,53,57,53,50,100,91,80,30.29,30.14,24,9,24,0.04
2013-9-2,65,60,57,63,60,57,100,99,89,30.24,30.12,24,10,24,0.07
2013-9-3,67,61,57,62,59,56,100,93,72,30.25,30.17,18,5,18,0.00
2013-9-4,69,60,54,58,55,50,100,84,63,30.17,29.88,22,6,22,0.00
2013-9-5,63,56,46,56,49,42,95,78,56,29.91,29.86,13,4,13,0.00
2013-9-6,58,50,42,51,46,40,99,88,74,29.93,29.87,12,3,12,0.51
2013-9-7,57,51,46,54,49,45,100,94,80,29.89,29.73,25,6,25,0.36
2013-9-8,61,52,45,54,49,45,100,89,71,29.94,29.88,17,4,17,0.01
2013-9-9,63,53,46,55,50,45,100,90,64,30.16,29.94,14,3,14,0.03
2013-9-10,64,55,49,54,50,46,93,82,66,30.24,30.16,18,7,18,0.00
2013-9-11,61,56,50,61,55,49,100,98,93,30.23,30.06,9,2,9,0.25
2013-9-12,62,57,52,62,57,52,100,99,92,30.08,29.86,20,5,20,0.15
2013-9-13,54,50,45,54,49,45,100,96,86,30.08,29.99,12,2,12,0.09
2013-9-14,61,51,44,51,47,43,100,88,65,30.07,29.90,12,3,12,0.00
2013-9-15,58,50,42,58,49,41,100,94,71,29.90,29.21,38,14,38,0.90
2013-9-16,54,47,42,50,45,41,98,92,79,29.36,29.28,24,9,24,0.26
2013-9-17,54,49,44,49,46,43,95,89,80,29.40,29.30,25,7,25,0.00
2013-9-18,56,49,43,50,46,42,100,92,75,29.73,29.40,22,6,22,0.02
2013-9-19,56,51,47,56,50,46,100,99,97,29.78,29.48,14,4,14,0.29
2013-9-20,60,53,46,54,51,46,100,91,74,30.02,29.79,20,7,20,0.01
2013-9-21,62,57,52,62,56,50,100,97,88,30.10,30.01,18,8,18,0.02
2013-9-22,69,61,58,62,60,58,100,95,77,30.28,30.10,18,6,18,0.00
2013-9-23,64,60,55,62,59,55,100,98,93,30.27,30.09,10,2,10,0.00
2013-9-24,60,59,57,60,59,57,100,100,100,30.09,29.94,7,2,7,0.05
2013-9-25,57,54,47,57,54,46,100,99,92,30.02,29.88,13,5,13,0.02
2013-9-26,58,51,43,53,49,43,100,94,80,30.09,30.02,8,3,8,0.06
2013-9-27,59,55,52,59,55,52,100,100,100,30.04,29.91,4,0,4,0.04
2013-9-28,68,57,47,62,55,47,100,94,79,29.91,29.82,10,2,10,0.00
2013-9-29,64,53,46,56,50,46,100,90,73,29.90,29.84,20,5,20,0.00
2013-9-30,61,53,45,54,50,45,100,91,79,29.86,29.77,22,7,22,0.01
2013-10-1,61,53,47,53,50,46,100,90,72,29.86,29.77,18,6,18,0.13
2013-10-2,59,56,52,59,55,52,100,100,98,29.80,29.71,17,4,17,0.38
2013-10-3,66,62,58,66,62,58,100,99,94,29.71,29.50,18,7,18,0.76
2013-10-4,63,59,55,61,59,55,100,99,91,29.81,29.50,13,4,13,0.06
2013-10-5,60,56,53,57,55,53,100,96,83,30.07,29.82,17,5,17,0.01
2013-10-6,62,60,57,62,59,57,100,99,89,30.08,30.03,20,8,20,0.14
2013-10-7,66,62,60,64,62,60,100,98,90,30.06,29.95,24,10,24,0.10
2013-10-8,60,56,52,60,56,51,100,99,93,30.16,29.95,21,8,21,0.06
2013-10-9,52,49,44,52,46,36,100,87,73,30.17,29.97,30,10,30,0.05
2013-10-10,53,46,38,42,39,35,89,77,63,30.44,30.17,18,5,18,0.00
2013-10-11,52,45,36,47,42,34,98,90,83,30.50,30.41,14,5,14,0.00
2013-10-12,58,51,46,51,48,44,98,90,73,30.46,30.25,21,8,21,0.00
2013-10-13,53,50,45,51,49,45,100,96,86,30.25,30.03,17,7,17,0.00
2013-10-14,55,51,48,54,51,48,100,99,92,30.03,29.91,12,5,12,0.02
2013-10-15,56,50,44,53,49,44,100,97,88,29.97,29.90,14,3,14,0.00
2013-10-16,52,46,38,52,46,38,100,100,96,29.96,29.58,12,3,12,0.26
2013-10-17,56,51,48,56,51,48,100,100,100,29.94,29.63,12,2,12,0.14
2013-10-18,54,51,48,54,51,48,100,100,100,29.96,29.63,12,4,12,0.35
2013-10-19,60,56,54,60,56,54,100,100,100,29.63,29.42,14,4,14,0.44
2013-10-20,58,55,52,58,55,52,100,100,100,29.44,29.36,21,4,21,0.30
2013-10-21,57,55,53,57,55,53,100,100,100,29.49,29.22,17,4,17,0.61
2013-10-22,61,59,57,61,58,57,100,100,96,29.22,29.04,22,7,22,0.62
2013-10-23,58,53,47,58,52,46,100,96,79,29.57,28.96,29,8,29,0.12
2013-10-24,57,50,46,53,49,44,100,96,79,29.86,29.57,13,3,13,0.02
2013-10-25,60,53,47,60,53,47,100,100,100,29.81,29.28,20,7,20,0.40
2013-10-26,56,53,49,56,52,49,100,99,90,29.41,29.12,25,8,25,0.25
2013-10-27,54,51,50,54,51,50,100,100,98,29.12,28.81,26,12,27,0.94
2013-10-28,52,50,47,52,50,47,100,100,98,29.34,28.86,20,6,20,0.16
2013-10-29,52,47,43,50,46,43,100,98,91,29.87,29.34,20,5,20,0.02
2013-10-30,56,49,42,55,48,42,100,99,94,29.90,29.56,27,8,27,0.25
2013-10-31,53,49,46,52,49,46,100,99,94,29.79,29.58,24,10,24,0.17
2013-11-1,51,48,43,50,47,43,100,96,88,29.59,29.53,22,7,22,0.00
2013-11-2,46,43,38,46,43,38,100,100,100,29.53,28.83,27,5,27,0.56
2013-11-3,50,44,38,46,43,38,100,95,83,29.29,28.99,32,8,32,0.02
2013-11-4,49,40,35,44,39,35,100,96,81,29.37,29.21,10,2,10,0.01
2013-11-5,46,39,33,46,39,33,100,100,99,29.30,29.16,20,2,20,0.10
2013-11-6,48,44,40,48,44,40,100,100,100,29.36,29.23,16,4,16,0.23
2013-11-7,50,46,41,49,45,41,100,99,95,29.45,29.35,28,10,28,0.27
2013-11-8,49,45,40,48,45,40,100,100,96,29.53,29.44,21,5,21,0.13
2013-11-9,45,39,34,45,39,34,100,100,100,29.65,29.49,12,2,12,0.10
2013-11-10,47,40,34,45,40,34,100,98,89,30.08,29.65,12,2,12,0.01
2013-11-11,56,51,45,56,51,45,100,99,93,30.02,29.75,25,9,25,0.20
2013-11-12,50,47,44,50,47,44,100,98,87,30.36,30.02,22,7,22,0.12
2013-11-13,50,48,45,50,48,45,100,99,94,30.36,29.81,27,10,27,0.25
2013-11-14,49,45,43,49,44,41,100,95,86,30.47,29.81,27,9,27,0.06
2013-11-15,52,50,44,52,50,44,100,100,99,30.46,30.34,20,6,20,0.02
2013-11-16,54,51,42,54,51,42,100,100,100,30.34,30.21,21,7,21,0.10
2013-11-17,46,42,37,46,42,37,100,100,100,30.35,29.91,6,1,6,0.05
2013-11-18,46,42,36,46,42,36,100,99,89,29.91,29.75,18,3,18,0.04
2013-11-19,46,38,32,46,38,32,100,98,89,30.02,29.60,24,5,24,0.15
2013-11-20,47,43,40,47,41,36,100,93,82,29.80,29.42,30,12,30,0.19
2013-11-21,42,36,30,38,34,30,100,92,84,30.15,29.79,14,2,16,0.00
2013-11-22,40,33,26,38,33,26,100,99,89,30.28,30.15,7,1,7,0.00
2013-11-23,46,41,36,46,41,36,100,100,100,30.42,30.26,7,2,7,0.00
2013-11-24,42,37,33,42,37,33,100,100,100,30.67,30.42,4,0,4,0.01
2013-11-25,43,39,32,43,39,32,100,100,100,30.71,30.66,5,1,5,0.00
2013-11-26,53,49,43,53,49,42,100,100,100,30.69,30.52,20,4,20,0.05
2013-11-27,54,52,50,54,52,50,100,100,100,30.52,30.48,13,5,13,0.01
2013-11-28,51,46,42,51,46,42,100,100,100,30.59,30.34,20,2,20,0.02
2013-11-29,51,46,43,51,45,42,100,98,92,30.34,30.11,27,11,27,0.16
2013-11-30,49,46,39,49,45,39,100,100,97,30.39,30.28,17,4,17,0.00
2013-12-1,51,48,46,51,48,46,100,100,100,30.56,30.37,12,3,12,0.01
2013-12-2,49,48,46,49,48,46,100,100,99,30.55,30.30,17,6,17,0.02
2013-12-3,51,49,42,51,49,41,100,100,99,30.30,30.09,20,9,20,0.12
2013-12-4,46,43,39,46,43,39,100,100,97,30.29,30.06,24,7,24,0.27
2013-12-5,50,42,35,50,42,31,100,97,78,30.14,29.46,52,17,52,0.87
2013-12-6,39,37,34,37,34,31,100,91,76,30.31,30.15,20,3,20,0.06
2013-12-7,50,45,36,50,45,36,100,100,100,30.19,29.93,20,5,20,0.17
2013-12-8,56,53,50,56,53,50,100,100,100,29.95,29.83,28,12,28,0.79
2013-12-9,56,53,50,56,53,50,100,100,100,30.15,29.92,20,9,20,0.10
2013-12-10,55,53,50,55,53,49,100,100,97,30.16,30.09,29,13,29,0.03
2013-12-11,55,51,46,55,51,46,100,100,97,30.19,29.96,28,10,28,0.00
2013-12-12,57,55,49,57,55,48,100,100,92,29.96,29.86,28,12,28,0.68
2013-12-13,57,53,45,57,53,45,100,100,100,29.86,29.66,44,1,44,0.21
2013-12-14,54,49,42,54,49,42,100,100,99,29.89,29.37,1,0,1,1.01
2013-12-15,52,47,43,52,47,43,100,100,98,29.81,29.48,0,0,0,0.34
2013-12-16,50,45,41,50,45,41,100,99,89,29.94,29.47,0,0,0,0.19
2013-12-17,48,44,41,47,44,41,100,99,96,30.05,29.65,0,0,0,0.00
2013-12-18,54,50,46,54,50,44,100,99,90,29.65,28.69,0,0,0,0.54
2013-12-19,46,42,39,45,42,39,100,99,96,29.45,28.76,0,0,0,0.22
2013-12-20,54,47,40,54,47,40,100,100,100,29.68,29.31,0,0,0,0.89
2013-12-21,50,47,43,50,47,43,100,99,96,29.45,29.22,0,0,0,0.28
2013-12-22,45,42,38,45,42,38,100,100,97,29.48,29.26,0,0,0,0.21
2013-12-23,52,45,39,52,45,39,100,100,99,29.48,28.22,27,7,27,0.19
2013-12-24,51,43,40,50,42,38,100,97,87,28.43,28.20,38,19,38,0.30
2013-12-25,46,45,43,46,44,42,100,99,88,29.02,28.43,26,12,28,0.26
2013-12-26,44,42,40,44,42,40,100,100,100,29.25,28.48,29,10,29,0.05
2013-12-27,48,46,40,48,46,40,100,100,99,28.75,28.10,36,17,36,0.98
2013-12-28,45,44,42,45,44,42,100,100,99,29.47,28.76,24,8,24,0.34
2013-12-29,50,44,42,50,44,42,100,100,100,29.75,29.39,18,5,26,0.62
2013-12-30,52,46,41,52,46,41,100,100,100,29.56,29.28,10,3,24,0.99
2013-12-31,47,44,42,47,44,42,100,100,100,29.53,29.16,15,7,25,0.14
2014-1-1,49,44,41,49,44,41,100,100,100,29.22,28.60,9,4,21,0.45
2014-1-2,47,45,43,47,45,43,100,100,100,29.08,28.70,13,4,25,0.21